createdAt,value
2022-08-29T00:01:16.118Z,98673.27
2022-08-29T00:11:46.753Z,98666.58
2022-08-29T00:22:16.179Z,98672.44
2022-08-29T00:32:45.289Z,98676.31
2022-08-29T00:43:14.831Z,98681.67
2022-08-29T00:53:47.472Z,98679.95
2022-08-29T01:04:24.211Z,98688.75
2022-08-29T01:14:57.198Z,98683.27
2022-08-29T01:25:32.469Z,98680.92
2022-08-29T01:36:01.423Z,98679.86
2022-08-29T01:46:33.083Z,98685.80
2022-08-29T01:57:03.129Z,98692.59
2022-08-29T02:07:32.149Z,98696.70
2022-08-29T02:18:01.093Z,98700.49
2022-08-29T02:28:30.190Z,98695.80
2022-08-29T02:38:59.257Z,98703.69
2022-08-29T02:49:28.339Z,98711.73
2022-08-29T02:59:59.261Z,98716.44
2022-08-29T03:10:28.851Z,98716.66
2022-08-29T03:20:57.914Z,98727.36
2022-08-29T03:31:27.084Z,98727.36
2022-08-29T03:41:56.517Z,98739.37
2022-08-29T03:52:25.741Z,98747.05
2022-08-29T04:02:56.000Z,98747.88
2022-08-29T04:13:25.083Z,98765.27
2022-08-29T04:23:54.534Z,98773.95
2022-08-29T04:34:23.487Z,98783.72
2022-08-29T04:44:52.579Z,98798.25
2022-08-29T04:55:25.694Z,98813.23
2022-08-29T05:06:02.347Z,98817.80
2022-08-29T05:16:32.057Z,98836.40
2022-08-29T05:27:01.190Z,98850.50
2022-08-29T05:37:30.300Z,98857.81
2022-08-29T05:47:59.912Z,98865.33
2022-08-29T05:58:29.564Z,98862.67
2022-08-29T06:08:59.687Z,98866.80
2022-08-29T06:19:29.760Z,98883.66
2022-08-29T06:30:01.739Z,98902.04
2022-08-29T06:40:31.544Z,98915.21
2022-08-29T06:51:01.967Z,98926.32
2022-08-29T07:01:31.648Z,98938.18
2022-08-29T07:12:03.521Z,98950.29
2022-08-29T07:22:32.608Z,98958.40
2022-08-29T07:33:01.831Z,98965.73
2022-08-29T07:43:31.016Z,98968.27
2022-08-29T07:54:00.605Z,98968.42
2022-08-29T08:04:30.631Z,98968.37
2022-08-29T08:15:00.388Z,98973.05
2022-08-29T08:25:29.783Z,98976.61
2022-08-29T08:35:58.933Z,98982.73
2022-08-29T08:46:37.270Z,98987.81
2022-08-29T08:57:11.465Z,98992.35
2022-08-29T09:07:54.919Z,98996.39
2022-08-29T09:18:30.633Z,98986.56
2022-08-29T09:28:59.748Z,98980.77
2022-08-29T09:39:30.737Z,98974.30
2022-08-29T09:50:14.440Z,98971.03
2022-08-29T10:00:47.837Z,98965.34
2022-08-29T10:11:26.915Z,98963.39
2022-08-29T10:22:07.282Z,98967.61
2022-08-29T10:33:02.397Z,98959.46
2022-08-29T10:43:42.000Z,98962.90
2022-08-29T10:54:23.861Z,98965.96
2022-08-29T11:04:57.050Z,98965.54
2022-08-29T11:15:33.632Z,98954.04
2022-08-29T11:26:10.273Z,98940.63
2022-08-29T11:37:03.303Z,98938.84
2022-08-29T11:47:40.847Z,98934.64
2022-08-29T11:58:35.584Z,98926.02
2022-08-29T12:09:13.587Z,98930.54
2022-08-29T12:19:53.619Z,98920.77
2022-08-29T12:30:22.960Z,98918.23
2022-08-29T12:41:07.427Z,98915.45
2022-08-29T12:51:42.953Z,98916.71
2022-08-29T13:02:27.215Z,98913.27
2022-08-29T13:13:05.225Z,98903.42
2022-08-29T13:23:36.616Z,98898.63
2022-08-29T13:34:22.649Z,98897.17
2022-08-29T13:45:15.260Z,98891.30
2022-08-29T13:55:45.778Z,98878.57
2022-08-29T14:06:16.992Z,98873.14
2022-08-29T14:16:45.993Z,98875.94
2022-08-29T14:27:15.019Z,98881.59
2022-08-29T14:37:44.877Z,98885.23
2022-08-29T14:48:14.582Z,98883.45
2022-08-29T14:58:43.920Z,98880.97
2022-08-29T15:09:13.253Z,98878.86
2022-08-29T15:20:31.546Z,98876.73
2022-08-29T15:30:31.979Z,98866.19
2022-08-29T15:41:01.323Z,98867.63
2022-08-29T15:51:35.452Z,98870.73
2022-08-29T16:02:05.650Z,98864.58
2022-08-29T16:12:34.821Z,98869.85
2022-08-29T16:23:05.138Z,98870.12
2022-08-29T16:33:35.351Z,98867.54
2022-08-29T16:44:05.033Z,98864.48
2022-08-29T16:54:34.467Z,98865.96
2022-08-29T17:05:03.987Z,98869.67
2022-08-29T17:15:31.928Z,98873.92
2022-08-29T17:26:04.460Z,98884.31
2022-08-29T17:36:34.233Z,98889.98
2022-08-29T17:47:04.593Z,98901.86
2022-08-29T17:57:34.603Z,98908.30
2022-08-29T18:08:04.217Z,98914.91
2022-08-29T18:18:33.400Z,98921.67
2022-08-29T18:29:02.460Z,98941.39
2022-08-29T18:39:32.103Z,98954.23
2022-08-29T18:50:19.101Z,98965.25
2022-08-29T19:00:48.548Z,98968.45
2022-08-29T19:11:17.948Z,98975.66
2022-08-29T19:21:47.277Z,98993.30
2022-08-29T19:32:16.767Z,99006.61
2022-08-29T19:42:46.378Z,99017.45
2022-08-29T19:53:17.975Z,99024.89
2022-08-29T20:03:56.327Z,99030.77
2022-08-29T20:14:25.468Z,99032.23
2022-08-29T20:24:54.634Z,99039.55
2022-08-29T20:35:38.667Z,99038.91
2022-08-29T20:46:12.281Z,99044.38
2022-08-29T20:56:41.651Z,99047.44
2022-08-29T21:07:13.374Z,99051.08
2022-08-29T21:17:42.628Z,99052.10
2022-08-29T21:28:12.247Z,99053.73
2022-08-29T21:38:42.799Z,99050.18
2022-08-29T21:49:14.588Z,99052.27
2022-08-29T21:59:43.665Z,99059.86
2022-08-29T22:10:14.652Z,99060.65
2022-08-29T22:20:44.468Z,99062.95
2022-08-29T22:31:13.753Z,99056.18
2022-08-29T22:41:47.291Z,99055.81
2022-08-29T22:52:16.754Z,99053.89
2022-08-29T23:02:46.622Z,99053.69
2022-08-29T23:13:16.022Z,99053.30
2022-08-29T23:23:45.597Z,99048.27
2022-08-29T23:34:14.888Z,99043.20
2022-08-29T23:44:43.955Z,99045.89
2022-08-29T23:55:15.445Z,99044.71
